createdAt,value
2018-08-30T00:01:51.349Z,2.10
2018-08-30T00:04:19.859Z,2.30
2018-08-30T00:06:48.360Z,1.80
2018-08-30T00:09:16.878Z,2.17
2018-08-30T00:11:45.340Z,2.53
2018-08-30T00:14:14.457Z,2.27
2018-08-30T00:16:43.015Z,1.80
2018-08-30T00:19:11.554Z,2.70
2018-08-30T00:21:40.045Z,3.17
2018-08-30T00:24:08.605Z,3.20
2018-08-30T00:26:37.224Z,2.60
2018-08-30T00:29:05.715Z,2.10
2018-08-30T00:31:34.230Z,2.70
2018-08-30T00:34:02.773Z,2.17
2018-08-30T00:36:31.277Z,2.47
2018-08-30T00:38:59.831Z,2.53
2018-08-30T00:41:28.395Z,2.40
2018-08-30T00:43:56.843Z,1.80
2018-08-30T00:46:25.363Z,2.20
2018-08-30T00:48:53.802Z,1.87
2018-08-30T00:51:22.350Z,2.30
2018-08-30T00:53:50.879Z,2.37
2018-08-30T00:56:19.374Z,3.07
2018-08-30T00:58:47.868Z,2.03
2018-08-30T01:01:16.823Z,2.67
2018-08-30T01:03:45.306Z,3.47
2018-08-30T01:06:13.833Z,2.00
2018-08-30T01:08:42.356Z,2.50
2018-08-30T01:11:10.861Z,2.53
2018-08-30T01:13:39.351Z,2.20
2018-08-30T01:16:07.826Z,2.50
2018-08-30T01:18:36.305Z,2.63
2018-08-30T01:21:04.805Z,2.97
2018-08-30T01:23:33.286Z,3.00
2018-08-30T01:26:01.703Z,3.20
2018-08-30T01:28:30.186Z,2.57
2018-08-30T01:30:58.740Z,2.70
2018-08-30T01:33:27.246Z,3.47
2018-08-30T01:35:55.759Z,2.97
2018-08-30T01:38:24.215Z,6.30
2018-08-30T01:40:52.790Z,3.80
2018-08-30T01:43:21.248Z,4.33
2018-08-30T01:45:49.759Z,4.37
2018-08-30T01:48:18.280Z,5.00
2018-08-30T01:50:46.767Z,4.67
2018-08-30T01:53:15.233Z,5.10
2018-08-30T01:55:43.762Z,4.83
2018-08-30T01:58:12.285Z,4.23
2018-08-30T02:00:40.708Z,4.93
2018-08-30T02:03:09.247Z,5.07
2018-08-30T02:05:37.783Z,5.03
2018-08-30T02:08:06.291Z,4.60
2018-08-30T02:10:34.830Z,4.27
2018-08-30T02:13:03.385Z,6.77
2018-08-30T02:15:31.886Z,5.57
2018-08-30T02:18:00.358Z,6.87
2018-08-30T02:20:28.865Z,4.87
2018-08-30T02:22:57.350Z,5.50
2018-08-30T02:25:25.875Z,4.20
2018-08-30T02:27:54.360Z,4.53
2018-08-30T02:30:22.935Z,4.70
2018-08-30T02:32:51.435Z,4.57
2018-08-30T02:35:19.879Z,4.60
2018-08-30T02:37:49.174Z,4.77
2018-08-30T02:40:17.624Z,6.17
2018-08-30T02:42:46.132Z,5.50
2018-08-30T02:45:14.679Z,6.47
2018-08-30T02:47:43.196Z,4.50
2018-08-30T02:50:11.674Z,4.90
2018-08-30T02:52:40.194Z,6.00
2018-08-30T02:55:08.794Z,5.20
2018-08-30T02:57:37.310Z,4.27
2018-08-30T03:00:12.151Z,4.00
2018-08-30T03:02:40.594Z,3.77
2018-08-30T03:05:09.082Z,4.27
2018-08-30T03:07:37.620Z,4.40
2018-08-30T03:10:06.239Z,3.07
2018-08-30T03:12:34.782Z,4.00
2018-08-30T03:15:14.841Z,3.07
2018-08-30T03:17:43.384Z,2.53
2018-08-30T03:20:13.779Z,3.10
2018-08-30T03:22:42.717Z,2.63
2018-08-30T03:25:11.246Z,2.73
2018-08-30T03:27:39.695Z,2.70
2018-08-30T03:30:09.091Z,3.30
2018-08-30T03:32:37.617Z,2.33
2018-08-30T03:35:06.185Z,2.30
2018-08-30T03:37:34.665Z,2.03
2018-08-30T03:40:03.164Z,2.40
2018-08-30T03:42:31.670Z,2.07
2018-08-30T03:45:00.163Z,2.50
2018-08-30T03:47:28.662Z,2.07
2018-08-30T03:49:57.206Z,2.50
2018-08-30T03:52:25.927Z,2.07
2018-08-30T03:54:54.404Z,2.10
2018-08-30T03:57:22.844Z,1.93
2018-08-30T03:59:51.346Z,2.77
2018-08-30T04:02:19.842Z,2.53
2018-08-30T04:04:48.347Z,2.40
2018-08-30T04:07:16.943Z,2.60
2018-08-30T04:09:45.461Z,2.23
2018-08-30T04:12:13.941Z,2.50
2018-08-30T04:14:42.454Z,2.40
2018-08-30T04:17:10.936Z,3.33
2018-08-30T04:19:39.504Z,2.77
2018-08-30T04:22:08.004Z,3.57
2018-08-30T04:24:36.453Z,3.60
2018-08-30T04:27:09.893Z,3.20
2018-08-30T04:29:38.321Z,2.77
2018-08-30T04:32:06.807Z,2.67
2018-08-30T04:34:35.345Z,2.23
2018-08-30T04:37:03.879Z,3.03
2018-08-30T04:39:32.417Z,2.10
2018-08-30T04:42:00.944Z,2.80
2018-08-30T04:44:29.466Z,2.77
2018-08-30T04:46:58.674Z,2.07
2018-08-30T04:49:27.240Z,1.97
2018-08-30T04:51:55.717Z,2.73
2018-08-30T04:54:24.130Z,2.90
2018-08-30T04:56:52.616Z,2.30
2018-08-30T04:59:21.158Z,2.70
2018-08-30T05:01:49.733Z,2.43
2018-08-30T05:04:18.490Z,2.00
2018-08-30T05:06:47.018Z,2.57
2018-08-30T05:09:15.540Z,1.77
2018-08-30T05:11:44.033Z,2.80
2018-08-30T05:14:12.574Z,1.77
2018-08-30T05:16:41.211Z,2.20
2018-08-30T05:19:09.645Z,2.17
2018-08-30T05:21:38.141Z,1.47
2018-08-30T05:24:06.671Z,1.87
2018-08-30T05:26:35.168Z,2.03
2018-08-30T05:29:03.693Z,1.53
2018-08-30T05:31:32.214Z,1.60
2018-08-30T05:34:00.763Z,2.33
2018-08-30T05:36:29.292Z,1.67
2018-08-30T05:38:57.790Z,1.50
2018-08-30T05:41:26.325Z,1.57
2018-08-30T05:43:54.873Z,1.97
2018-08-30T05:46:23.403Z,1.20
2018-08-30T05:48:51.934Z,1.13
2018-08-30T05:51:20.459Z,1.60
2018-08-30T05:53:48.953Z,1.43
2018-08-30T05:56:17.466Z,1.30
2018-08-30T05:58:45.953Z,1.33
2018-08-30T06:01:14.508Z,1.77
2018-08-30T06:03:43.018Z,1.40
2018-08-30T06:06:11.529Z,2.30
2018-08-30T06:08:40.666Z,1.83
2018-08-30T06:11:09.222Z,1.70
2018-08-30T06:13:38.564Z,1.97
2018-08-30T06:16:07.359Z,1.83
2018-08-30T06:18:36.056Z,2.17
2018-08-30T06:21:04.654Z,1.70
2018-08-30T06:23:33.195Z,2.10
2018-08-30T06:26:01.694Z,2.77
2018-08-30T06:28:30.139Z,3.03
2018-08-30T06:30:58.757Z,2.00
2018-08-30T06:33:27.267Z,3.20
2018-08-30T06:35:55.779Z,2.57
2018-08-30T06:38:24.310Z,2.43
2018-08-30T06:40:52.792Z,2.50
2018-08-30T06:43:21.365Z,2.63
2018-08-30T06:45:49.896Z,2.27
2018-08-30T06:48:18.505Z,2.23
2018-08-30T06:50:47.095Z,3.20
2018-08-30T06:53:15.821Z,2.73
2018-08-30T06:55:44.309Z,2.93
2018-08-30T06:58:12.989Z,2.70
2018-08-30T07:00:41.563Z,3.80
2018-08-30T07:03:10.255Z,3.53
2018-08-30T07:05:38.788Z,2.53
2018-08-30T07:08:07.303Z,3.13
2018-08-30T07:10:35.773Z,2.87
2018-08-30T07:13:04.327Z,2.77
2018-08-30T07:15:32.918Z,3.43
2018-08-30T07:18:01.420Z,2.70
2018-08-30T07:20:29.901Z,3.23
2018-08-30T07:22:58.953Z,2.50
2018-08-30T07:25:27.641Z,3.83
2018-08-30T07:27:56.731Z,2.40
2018-08-30T07:30:25.276Z,4.40
2018-08-30T07:32:54.057Z,4.80
2018-08-30T07:35:22.577Z,3.50
2018-08-30T07:37:51.064Z,3.30
2018-08-30T07:40:20.021Z,4.60
2018-08-30T07:42:48.536Z,4.30
2018-08-30T07:45:17.119Z,4.87
2018-08-30T07:47:45.663Z,2.90
2018-08-30T07:50:14.193Z,3.80
2018-08-30T07:52:42.910Z,4.50
2018-08-30T07:55:12.460Z,4.37
2018-08-30T07:57:40.952Z,4.03
2018-08-30T08:00:12.925Z,3.87
2018-08-30T08:02:41.581Z,4.40
2018-08-30T08:05:10.157Z,3.40
2018-08-30T08:07:38.701Z,4.23
2018-08-30T08:10:07.392Z,4.03
2018-08-30T08:12:35.925Z,3.40
2018-08-30T08:15:04.662Z,5.97
2018-08-30T08:17:33.357Z,4.00
2018-08-30T08:20:01.905Z,3.83
2018-08-30T08:22:30.368Z,3.73
2018-08-30T08:24:59.234Z,3.13
2018-08-30T08:27:27.733Z,3.60
2018-08-30T08:29:56.246Z,4.10
2018-08-30T08:32:24.807Z,4.97
2018-08-30T08:34:53.409Z,3.10
2018-08-30T08:37:22.034Z,4.90
2018-08-30T08:39:50.582Z,3.30
2018-08-30T08:42:19.190Z,5.70
2018-08-30T08:44:47.716Z,4.73
2018-08-30T08:47:16.314Z,4.13
2018-08-30T08:49:44.882Z,4.07
2018-08-30T08:52:13.438Z,4.80
2018-08-30T08:54:41.954Z,5.90
2018-08-30T08:57:10.493Z,5.17
2018-08-30T08:59:38.908Z,4.97
2018-08-30T09:02:07.566Z,6.67
2018-08-30T09:04:36.247Z,4.60
2018-08-30T09:07:05.452Z,4.80
2018-08-30T09:09:33.948Z,8.00
2018-08-30T09:12:02.435Z,4.47
2018-08-30T09:14:31.066Z,4.30
2018-08-30T09:16:59.648Z,4.47
2018-08-30T09:19:28.165Z,4.67
2018-08-30T09:21:56.969Z,4.13
2018-08-30T09:24:25.465Z,5.90
2018-08-30T09:26:54.337Z,4.70
2018-08-30T09:29:22.849Z,4.23
2018-08-30T09:31:51.452Z,4.00
2018-08-30T09:34:20.158Z,4.70
2018-08-30T09:36:48.696Z,3.87
2018-08-30T09:39:17.219Z,4.10
2018-08-30T09:41:45.684Z,6.10
2018-08-30T09:44:14.410Z,4.77
2018-08-30T09:46:43.037Z,4.10
2018-08-30T09:49:12.223Z,6.53
2018-08-30T09:51:40.831Z,5.13
2018-08-30T09:54:15.217Z,4.73
2018-08-30T09:56:43.937Z,5.03
2018-08-30T09:59:12.614Z,4.37
2018-08-30T10:01:49.094Z,5.03
2018-08-30T10:04:18.532Z,4.90
2018-08-30T10:06:47.834Z,4.83
2018-08-30T10:09:16.393Z,5.20
2018-08-30T10:11:45.302Z,5.13
2018-08-30T10:14:13.883Z,4.40
2018-08-30T10:16:48.853Z,4.53
2018-08-30T10:19:17.388Z,5.80
2018-08-30T10:21:45.868Z,4.27
2018-08-30T10:24:14.401Z,4.27
2018-08-30T10:26:43.153Z,4.63
2018-08-30T10:29:11.938Z,5.17
2018-08-30T10:31:40.565Z,5.17
2018-08-30T10:34:09.126Z,4.80
2018-08-30T10:36:37.675Z,4.60
2018-08-30T10:39:07.763Z,4.47
2018-08-30T10:41:36.406Z,4.97
2018-08-30T10:44:05.898Z,3.10
2018-08-30T10:46:34.408Z,5.67
2018-08-30T10:49:03.377Z,5.53
2018-08-30T10:51:32.053Z,4.20
2018-08-30T10:54:00.583Z,5.70
2018-08-30T10:56:29.220Z,3.90
2018-08-30T10:58:58.294Z,4.07
2018-08-30T11:01:27.009Z,4.67
2018-08-30T11:03:55.751Z,3.80
2018-08-30T11:06:24.308Z,4.63
2018-08-30T11:08:53.211Z,4.93
2018-08-30T11:11:21.798Z,4.80
2018-08-30T11:13:50.322Z,4.17
2018-08-30T11:16:19.062Z,4.70
2018-08-30T11:18:47.579Z,5.40
2018-08-30T11:21:16.292Z,4.47
2018-08-30T11:23:44.785Z,4.83
2018-08-30T11:26:13.661Z,4.40
2018-08-30T11:28:42.516Z,4.50
2018-08-30T11:31:11.077Z,3.20
2018-08-30T11:33:39.790Z,4.47
2018-08-30T11:38:43.129Z,3.67
2018-08-30T11:41:11.755Z,4.30
2018-08-30T11:43:40.322Z,4.20
2018-08-30T11:46:08.785Z,4.87
2018-08-30T11:48:37.353Z,4.67
2018-08-30T11:51:06.783Z,5.20
2018-08-30T11:53:35.284Z,4.43
2018-08-30T11:56:03.868Z,4.87
2018-08-30T11:58:32.336Z,5.97
2018-08-30T12:01:00.828Z,5.03
2018-08-30T12:03:29.484Z,5.40
2018-08-30T12:05:58.136Z,4.37
2018-08-30T12:08:26.646Z,4.37
2018-08-30T12:10:55.356Z,5.67
2018-08-30T12:13:23.788Z,5.00
2018-08-30T12:15:52.438Z,5.07
2018-08-30T12:18:21.021Z,4.00
2018-08-30T12:20:49.611Z,4.13
2018-08-30T12:23:18.375Z,4.30
2018-08-30T12:25:46.865Z,3.80
2018-08-30T12:28:15.425Z,5.97
2018-08-30T12:30:43.981Z,5.07
2018-08-30T12:33:13.557Z,5.27
2018-08-30T12:35:42.180Z,5.23
2018-08-30T12:38:10.836Z,3.70
2018-08-30T12:40:39.329Z,4.50
2018-08-30T12:43:08.025Z,5.07
2018-08-30T12:45:36.618Z,4.50
2018-08-30T12:48:05.688Z,4.50
2018-08-30T12:50:34.295Z,4.90
2018-08-30T12:53:02.886Z,4.57
2018-08-30T12:55:31.357Z,5.80
2018-08-30T12:57:59.894Z,3.93
2018-08-30T13:00:28.420Z,4.30
2018-08-30T13:02:56.937Z,4.43
2018-08-30T13:05:25.727Z,4.90
2018-08-30T13:07:54.206Z,4.63
2018-08-30T13:10:22.813Z,5.23
2018-08-30T13:12:51.547Z,5.20
2018-08-30T13:15:20.161Z,4.70
2018-08-30T13:17:48.682Z,5.13
2018-08-30T13:20:17.368Z,3.87
2018-08-30T13:22:45.880Z,4.43
2018-08-30T13:25:14.419Z,4.80
2018-08-30T13:27:42.927Z,5.20
2018-08-30T13:30:11.650Z,4.20
2018-08-30T13:32:40.159Z,6.10
2018-08-30T13:35:08.911Z,3.53
2018-08-30T13:37:37.539Z,4.67
2018-08-30T13:40:06.166Z,5.00
2018-08-30T13:42:34.669Z,4.57
2018-08-30T13:45:03.924Z,5.10
2018-08-30T13:47:32.148Z,3.73
2018-08-30T13:50:00.731Z,3.60
2018-08-30T13:52:29.342Z,4.67
2018-08-30T13:54:57.713Z,5.30
2018-08-30T13:57:26.387Z,5.03
2018-08-30T13:59:54.843Z,3.50
2018-08-30T14:02:23.601Z,4.70
2018-08-30T14:04:52.255Z,4.83
2018-08-30T14:07:20.821Z,4.67
2018-08-30T14:09:49.264Z,4.83
2018-08-30T14:12:17.936Z,5.37
2018-08-30T14:14:46.476Z,5.20
2018-08-30T14:17:14.781Z,3.10
2018-08-30T14:19:43.365Z,4.70
2018-08-30T14:22:12.078Z,4.17
2018-08-30T14:24:40.582Z,4.00
2018-08-30T14:27:12.883Z,3.50
2018-08-30T14:29:41.271Z,3.23
2018-08-30T14:32:10.018Z,3.77
2018-08-30T14:34:38.713Z,3.30
2018-08-30T14:37:07.238Z,4.33
2018-08-30T14:39:37.532Z,4.40
2018-08-30T14:42:06.452Z,3.90
2018-08-30T14:44:35.097Z,3.70
2018-08-30T14:47:03.661Z,4.30
2018-08-30T14:49:32.148Z,3.93
2018-08-30T14:52:00.713Z,4.17
2018-08-30T14:54:29.403Z,3.97
2018-08-30T14:56:57.779Z,3.23
2018-08-30T14:59:26.512Z,4.07
2018-08-30T15:01:55.244Z,4.60
2018-08-30T15:04:23.746Z,4.50
2018-08-30T15:06:52.252Z,4.70
2018-08-30T15:09:20.983Z,4.07
2018-08-30T15:11:49.443Z,3.70
2018-08-30T15:14:18.157Z,4.20
2018-08-30T15:16:46.778Z,3.47
2018-08-30T15:19:15.305Z,3.47
2018-08-30T15:21:43.873Z,3.83
2018-08-30T15:24:12.510Z,3.53
2018-08-30T15:26:41.291Z,4.60
2018-08-30T15:29:09.815Z,3.80
2018-08-30T15:31:38.284Z,3.37
2018-08-30T15:34:06.824Z,3.37
2018-08-30T15:36:35.323Z,3.50
2018-08-30T15:39:04.927Z,3.37
2018-08-30T15:41:33.519Z,3.20
2018-08-30T15:44:02.043Z,3.20
2018-08-30T15:46:30.577Z,3.23
2018-08-30T15:48:59.322Z,3.00
2018-08-30T15:51:27.947Z,3.23
2018-08-30T15:53:56.522Z,3.20
2018-08-30T15:56:25.146Z,2.77
2018-08-30T15:58:53.739Z,3.60
2018-08-30T16:01:22.335Z,3.27
2018-08-30T16:03:50.937Z,3.17
2018-08-30T16:06:19.440Z,3.10
2018-08-30T16:08:47.973Z,3.20
2018-08-30T16:11:16.638Z,2.60
2018-08-30T16:13:45.157Z,2.37
2018-08-30T16:16:13.574Z,2.93
2018-08-30T16:18:42.258Z,3.23
2018-08-30T16:21:10.622Z,2.90
2018-08-30T16:23:39.123Z,3.47
2018-08-30T16:26:08.125Z,2.87
2018-08-30T16:28:36.734Z,3.20
2018-08-30T16:31:05.403Z,3.77
2018-08-30T16:33:33.982Z,3.33
2018-08-30T16:36:05.410Z,2.20
2018-08-30T16:38:34.368Z,3.00
2018-08-30T16:41:03.579Z,2.53
2018-08-30T16:43:32.218Z,2.67
2018-08-30T16:46:00.799Z,2.43
2018-08-30T16:48:29.682Z,3.00
2018-08-30T16:50:58.357Z,3.20
2018-08-30T16:53:26.843Z,4.03
2018-08-30T16:55:55.603Z,2.80
2018-08-30T16:58:24.219Z,4.07
2018-08-30T17:00:52.724Z,3.40
2018-08-30T17:03:21.206Z,3.23
2018-08-30T17:05:49.900Z,3.43
2018-08-30T17:08:18.447Z,3.60
2018-08-30T17:10:47.233Z,2.70
2018-08-30T17:13:15.756Z,2.67
2018-08-30T17:15:44.373Z,2.77
2018-08-30T17:18:13.924Z,2.50
2018-08-30T17:20:46.712Z,2.70
2018-08-30T17:23:15.364Z,2.20
2018-08-30T17:25:44.497Z,3.37
2018-08-30T17:28:13.459Z,2.63
2018-08-30T17:30:42.559Z,2.47
2018-08-30T17:33:11.324Z,3.00
2018-08-30T17:35:39.904Z,2.47
2018-08-30T17:38:08.453Z,2.80
2018-08-30T17:40:37.015Z,2.40
2018-08-30T17:43:05.750Z,2.90
2018-08-30T17:45:34.452Z,3.10
2018-08-30T17:48:02.872Z,3.20
2018-08-30T17:50:31.483Z,2.90
2018-08-30T17:53:00.525Z,2.43
2018-08-30T17:55:29.251Z,2.63
2018-08-30T17:57:57.798Z,2.70
2018-08-30T18:00:26.312Z,2.43
2018-08-30T18:02:55.096Z,2.63
2018-08-30T18:05:23.634Z,3.10
2018-08-30T18:07:52.227Z,3.00
2018-08-30T18:10:20.854Z,2.70
2018-08-30T18:12:49.427Z,2.03
2018-08-30T18:15:17.962Z,2.23
2018-08-30T18:17:46.659Z,2.23
2018-08-30T18:20:15.287Z,2.40
2018-08-30T18:22:43.841Z,2.77
2018-08-30T18:25:12.417Z,2.10
2018-08-30T18:27:41.007Z,2.20
2018-08-30T18:30:10.429Z,2.90
2018-08-30T18:32:39.145Z,2.20
2018-08-30T18:35:09.170Z,1.97
2018-08-30T18:37:38.505Z,3.00
2018-08-30T18:40:08.167Z,2.03
2018-08-30T18:42:36.787Z,2.30
2018-08-30T18:45:13.657Z,2.60
2018-08-30T18:47:42.270Z,2.43
2018-08-30T18:50:10.766Z,3.20
2018-08-30T18:52:39.379Z,2.27
2018-08-30T18:55:07.994Z,2.70
2018-08-30T18:57:36.481Z,2.80
2018-08-30T19:00:11.749Z,2.47
2018-08-30T19:02:40.336Z,3.03
2018-08-30T19:05:08.841Z,3.20
2018-08-30T19:07:37.370Z,2.53
2018-08-30T19:10:06.314Z,3.40
2018-08-30T19:12:34.885Z,2.50
2018-08-30T19:15:07.689Z,3.03
2018-08-30T19:17:41.546Z,2.40
2018-08-30T19:20:10.041Z,1.60
2018-08-30T19:22:38.575Z,3.10
2018-08-30T19:25:13.795Z,2.30
2018-08-30T19:27:43.997Z,2.70
2018-08-30T19:30:17.855Z,2.40
2018-08-30T19:32:46.322Z,2.40
2018-08-30T19:35:20.964Z,2.97
2018-08-30T19:37:50.486Z,2.73
2018-08-30T19:40:24.321Z,2.80
2018-08-30T19:42:52.870Z,3.20
2018-08-30T19:45:21.563Z,3.90
2018-08-30T19:47:50.442Z,2.57
2018-08-30T19:50:19.007Z,2.60
2018-08-30T19:52:47.558Z,2.40
2018-08-30T19:55:16.116Z,3.23
2018-08-30T19:57:51.172Z,2.80
2018-08-30T20:00:19.738Z,2.77
2018-08-30T20:02:48.259Z,2.70
2018-08-30T20:05:17.256Z,3.00
2018-08-30T20:07:45.884Z,4.23
2018-08-30T20:10:14.372Z,3.10
2018-08-30T20:12:42.907Z,2.93
2018-08-30T20:15:11.527Z,2.43
2018-08-30T20:17:40.010Z,3.00
2018-08-30T20:20:08.549Z,2.20
2018-08-30T20:22:37.168Z,2.57
2018-08-30T20:25:06.191Z,2.40
2018-08-30T20:27:34.705Z,2.40
2018-08-30T20:30:03.223Z,2.80
2018-08-30T20:32:31.810Z,3.27
2018-08-30T20:35:00.387Z,2.57
2018-08-30T20:37:28.845Z,3.43
2018-08-30T20:39:57.288Z,3.27
2018-08-30T20:42:25.831Z,3.23
2018-08-30T20:44:54.366Z,3.10
2018-08-30T20:47:22.921Z,3.27
2018-08-30T20:49:52.011Z,3.00
2018-08-30T20:52:20.670Z,3.20
2018-08-30T20:54:49.177Z,2.67
2018-08-30T20:57:17.686Z,2.43
2018-08-30T20:59:46.213Z,2.83
2018-08-30T21:02:14.711Z,3.17
2018-08-30T21:04:43.250Z,3.67
2018-08-30T21:07:11.719Z,3.30
2018-08-30T21:09:40.238Z,3.40
2018-08-30T21:12:08.786Z,2.80
2018-08-30T21:14:37.411Z,3.00
2018-08-30T21:17:06.906Z,3.23
2018-08-30T21:19:35.396Z,3.53
2018-08-30T21:22:03.947Z,2.73
2018-08-30T21:24:32.581Z,3.67
2018-08-30T21:27:01.081Z,3.23
2018-08-30T21:29:29.595Z,3.80
2018-08-30T21:31:58.077Z,3.73
2018-08-30T21:34:26.589Z,2.97
2018-08-30T21:36:55.166Z,2.53
2018-08-30T21:39:23.729Z,2.73
2018-08-30T21:41:52.291Z,3.10
2018-08-30T21:44:20.842Z,3.37
2018-08-30T21:46:49.435Z,2.40
2018-08-30T21:49:18.005Z,2.93
2018-08-30T21:51:46.534Z,2.83
2018-08-30T21:54:15.582Z,2.67
2018-08-30T21:56:44.083Z,2.63
2018-08-30T21:59:12.603Z,2.50
2018-08-30T22:01:41.291Z,2.90
2018-08-30T22:04:09.820Z,2.70
2018-08-30T22:06:38.357Z,3.33
2018-08-30T22:09:13.212Z,2.80
2018-08-30T22:11:42.599Z,3.30
2018-08-30T22:14:11.111Z,2.57
2018-08-30T22:16:39.633Z,1.90
2018-08-30T22:19:08.217Z,3.20
2018-08-30T22:21:36.790Z,2.50
2018-08-30T22:24:05.451Z,2.40
2018-08-30T22:26:34.054Z,3.17
2018-08-30T22:29:02.626Z,2.00
2018-08-30T22:31:31.155Z,1.90
2018-08-30T22:34:02.581Z,2.70
2018-08-30T22:36:31.145Z,2.13
2018-08-30T22:38:59.703Z,2.40
2018-08-30T22:41:28.233Z,1.97
2018-08-30T22:43:56.773Z,1.97
2018-08-30T22:46:25.322Z,2.07
2018-08-30T22:48:53.829Z,1.80
2018-08-30T22:51:22.381Z,2.33
2018-08-30T22:53:50.930Z,1.97
2018-08-30T22:56:19.433Z,2.33
2018-08-30T22:58:47.972Z,2.00
2018-08-30T23:01:16.527Z,2.33
2018-08-30T23:03:45.099Z,2.13
2018-08-30T23:06:13.656Z,2.37
2018-08-30T23:08:42.241Z,2.60
2018-08-30T23:11:10.799Z,1.70
2018-08-30T23:13:39.357Z,2.03
2018-08-30T23:16:07.998Z,2.63
2018-08-30T23:18:36.524Z,2.33
2018-08-30T23:21:05.637Z,2.23
2018-08-30T23:23:34.172Z,2.03
2018-08-30T23:26:02.696Z,2.50
2018-08-30T23:28:31.211Z,2.00
2018-08-30T23:30:59.792Z,2.40
2018-08-30T23:33:28.317Z,2.20
2018-08-30T23:35:56.868Z,2.03
2018-08-30T23:38:25.389Z,2.50
2018-08-30T23:40:53.901Z,2.13
2018-08-30T23:43:22.437Z,2.10
2018-08-30T23:45:50.988Z,2.30
2018-08-30T23:48:19.545Z,1.80
2018-08-30T23:50:48.071Z,2.23
2018-08-30T23:53:16.553Z,2.33
2018-08-30T23:55:45.076Z,2.60
2018-08-30T23:58:24.617Z,2.30
